sensor_id;sensor_type;location;lat;lon;timestamp;temperature;humidity
27619;DHT22;15039;50.830;4.730;2024-03-08T00:00:34;5.00;99.90
27619;DHT22;15039;50.830;4.730;2024-03-08T00:02:59;5.00;99.90
27619;DHT22;15039;50.830;4.730;2024-03-08T00:05:27;5.00;99.90
27619;DHT22;15039;50.830;4.730;2024-03-08T00:07:53;4.80;99.90
27619;DHT22;15039;50.830;4.730;2024-03-08T00:10:18;4.80;99.90
27619;DHT22;15039;50.830;4.730;2024-03-08T00:12:46;4.90;99.90
27619;DHT22;15039;50.830;4.730;2024-03-08T00:15:15;5.10;99.90
27619;DHT22;15039;50.830;4.730;2024-03-08T00:17:41;5.10;99.90
27619;DHT22;15039;50.830;4.730;2024-03-08T00:20:07;5.00;99.90
27619;DHT22;15039;50.830;4.730;2024-03-08T00:22:36;4.90;99.90
27619;DHT22;15039;50.830;4.730;2024-03-08T00:25:02;4.70;99.90
27619;DHT22;15039;50.830;4.730;2024-03-08T00:27:28;4.70;99.90
27619;DHT22;15039;50.830;4.730;2024-03-08T00:29:57;4.70;99.90
27619;DHT22;15039;50.830;4.730;2024-03-08T00:32:22;4.80;99.90
27619;DHT22;15039;50.830;4.730;2024-03-08T00:34:50;4.80;99.90
27619;DHT22;15039;50.830;4.730;2024-03-08T00:37:17;4.70;99.90
27619;DHT22;15039;50.830;4.730;2024-03-08T00:39:43;4.80;99.90
27619;DHT22;15039;50.830;4.730;2024-03-08T00:42:08;4.90;99.90
27619;DHT22;15039;50.830;4.730;2024-03-08T00:44:34;4.80;99.90
27619;DHT22;15039;50.830;4.730;2024-03-08T00:46:59;4.70;99.90
27619;DHT22;15039;50.830;4.730;2024-03-08T00:49:25;4.70;99.90
27619;DHT22;15039;50.830;4.730;2024-03-08T00:51:51;4.60;99.90
27619;DHT22;15039;50.830;4.730;2024-03-08T00:54:16;4.60;99.90
27619;DHT22;15039;50.830;4.730;2024-03-08T00:56:42;4.50;99.90
27619;DHT22;15039;50.830;4.730;2024-03-08T00:59:07;4.50;99.90
27619;DHT22;15039;50.830;4.730;2024-03-08T01:01:33;4.50;99.90
27619;DHT22;15039;50.830;4.730;2024-03-08T01:03:59;4.60;99.90
27619;DHT22;15039;50.830;4.730;2024-03-08T01:06:25;4.60;99.90
27619;DHT22;15039;50.830;4.730;2024-03-08T01:08:50;4.40;99.90
27619;DHT22;15039;50.830;4.730;2024-03-08T01:11:17;4.50;99.90
27619;DHT22;15039;50.830;4.730;2024-03-08T01:13:43;4.40;99.90
27619;DHT22;15039;50.830;4.730;2024-03-08T01:16:09;4.40;99.90
27619;DHT22;15039;50.830;4.730;2024-03-08T01:18:35;4.40;99.90
27619;DHT22;15039;50.830;4.730;2024-03-08T01:21:01;4.40;99.90
27619;DHT22;15039;50.830;4.730;2024-03-08T01:23:26;4.40;99.90
27619;DHT22;15039;50.830;4.730;2024-03-08T01:25:52;4.30;99.90
27619;DHT22;15039;50.830;4.730;2024-03-08T01:28:25;4.30;99.90
27619;DHT22;15039;50.830;4.730;2024-03-08T01:30:51;4.40;99.90
27619;DHT22;15039;50.830;4.730;2024-03-08T01:33:21;4.30;99.90
27619;DHT22;15039;50.830;4.730;2024-03-08T01:35:48;4.30;99.90
27619;DHT22;15039;50.830;4.730;2024-03-08T01:38:13;4.30;99.90
27619;DHT22;15039;50.830;4.730;2024-03-08T01:40:39;4.20;99.90
27619;DHT22;15039;50.830;4.730;2024-03-08T01:43:22;4.30;99.90
27619;DHT22;15039;50.830;4.730;2024-03-08T01:45:48;4.20;99.90
27619;DHT22;15039;50.830;4.730;2024-03-08T01:48:14;4.20;99.90
27619;DHT22;15039;50.830;4.730;2024-03-08T01:50:40;4.20;99.90
27619;DHT22;15039;50.830;4.730;2024-03-08T01:53:06;4.20;99.90
27619;DHT22;15039;50.830;4.730;2024-03-08T01:55:32;4.10;99.90
27619;DHT22;15039;50.830;4.730;2024-03-08T01:58:00;4.10;99.90
27619;DHT22;15039;50.830;4.730;2024-03-08T02:00:25;4.10;99.90
27619;DHT22;15039;50.830;4.730;2024-03-08T02:02:53;4.10;99.90
27619;DHT22;15039;50.830;4.730;2024-03-08T02:05:19;4.10;99.90
27619;DHT22;15039;50.830;4.730;2024-03-08T02:07:45;4.10;99.90
27619;DHT22;15039;50.830;4.730;2024-03-08T02:10:10;4.10;99.90
27619;DHT22;15039;50.830;4.730;2024-03-08T02:12:38;4.00;99.90
27619;DHT22;15039;50.830;4.730;2024-03-08T02:15:04;4.10;99.90
27619;DHT22;15039;50.830;4.730;2024-03-08T02:17:32;4.10;99.90
27619;DHT22;15039;50.830;4.730;2024-03-08T02:19:59;4.20;99.90
27619;DHT22;15039;50.830;4.730;2024-03-08T02:22:30;4.20;99.90
27619;DHT22;15039;50.830;4.730;2024-03-08T02:24:55;4.10;99.90
27619;DHT22;15039;50.830;4.730;2024-03-08T02:27:24;4.00;99.90
27619;DHT22;15039;50.830;4.730;2024-03-08T02:29:56;4.00;99.90
27619;DHT22;15039;50.830;4.730;2024-03-08T02:32:25;3.90;99.90
27619;DHT22;15039;50.830;4.730;2024-03-08T02:34:51;3.90;99.90
27619;DHT22;15039;50.830;4.730;2024-03-08T02:37:21;3.90;99.90
27619;DHT22;15039;50.830;4.730;2024-03-08T02:39:46;3.90;99.90
27619;DHT22;15039;50.830;4.730;2024-03-08T02:42:12;4.00;99.90
27619;DHT22;15039;50.830;4.730;2024-03-08T02:44:41;4.10;99.90
27619;DHT22;15039;50.830;4.730;2024-03-08T02:47:08;4.10;99.90
27619;DHT22;15039;50.830;4.730;2024-03-08T02:49:33;4.00;99.90
27619;DHT22;15039;50.830;4.730;2024-03-08T02:51:59;3.90;99.90
27619;DHT22;15039;50.830;4.730;2024-03-08T02:54:24;3.80;99.90
27619;DHT22;15039;50.830;4.730;2024-03-08T02:56:50;3.80;99.90
27619;DHT22;15039;50.830;4.730;2024-03-08T02:59:16;3.80;99.90
27619;DHT22;15039;50.830;4.730;2024-03-08T03:01:42;3.80;99.90
27619;DHT22;15039;50.830;4.730;2024-03-08T03:04:08;3.70;99.90
27619;DHT22;15039;50.830;4.730;2024-03-08T03:06:34;3.80;99.90
27619;DHT22;15039;50.830;4.730;2024-03-08T03:08:59;3.70;99.90
27619;DHT22;15039;50.830;4.730;2024-03-08T03:11:25;3.60;99.90
27619;DHT22;15039;50.830;4.730;2024-03-08T03:13:52;3.70;99.90
27619;DHT22;15039;50.830;4.730;2024-03-08T03:16:21;3.70;99.90
27619;DHT22;15039;50.830;4.730;2024-03-08T03:18:46;3.60;99.90
27619;DHT22;15039;50.830;4.730;2024-03-08T03:21:12;3.60;99.90
27619;DHT22;15039;50.830;4.730;2024-03-08T03:23:41;3.50;99.90
27619;DHT22;15039;50.830;4.730;2024-03-08T03:26:10;3.40;99.90
27619;DHT22;15039;50.830;4.730;2024-03-08T03:28:38;3.40;99.90
27619;DHT22;15039;50.830;4.730;2024-03-08T03:31:07;3.40;99.90
27619;DHT22;15039;50.830;4.730;2024-03-08T03:33:32;3.50;99.90
27619;DHT22;15039;50.830;4.730;2024-03-08T03:35:59;3.50;99.90
27619;DHT22;15039;50.830;4.730;2024-03-08T03:38:26;3.40;99.90
27619;DHT22;15039;50.830;4.730;2024-03-08T03:40:53;3.40;99.90
27619;DHT22;15039;50.830;4.730;2024-03-08T03:43:25;3.50;99.90
27619;DHT22;15039;50.830;4.730;2024-03-08T03:45:51;3.60;99.90
27619;DHT22;15039;50.830;4.730;2024-03-08T03:48:16;3.40;99.90
27619;DHT22;15039;50.830;4.730;2024-03-08T03:50:42;3.40;99.90
27619;DHT22;15039;50.830;4.730;2024-03-08T03:53:07;3.30;99.90
27619;DHT22;15039;50.830;4.730;2024-03-08T03:55:33;3.30;99.90
27619;DHT22;15039;50.830;4.730;2024-03-08T03:57:59;3.40;99.90
27619;DHT22;15039;50.830;4.730;2024-03-08T04:00:26;3.40;99.90
27619;DHT22;15039;50.830;4.730;2024-03-08T04:02:52;3.40;99.90
27619;DHT22;15039;50.830;4.730;2024-03-08T04:05:18;3.40;99.90
27619;DHT22;15039;50.830;4.730;2024-03-08T04:07:44;3.40;99.90
27619;DHT22;15039;50.830;4.730;2024-03-08T04:10:10;3.40;99.90
27619;DHT22;15039;50.830;4.730;2024-03-08T04:12:37;3.40;99.90
27619;DHT22;15039;50.830;4.730;2024-03-08T04:15:02;3.40;99.90
27619;DHT22;15039;50.830;4.730;2024-03-08T04:17:28;3.30;99.90
27619;DHT22;15039;50.830;4.730;2024-03-08T04:19:53;3.30;99.90
27619;DHT22;15039;50.830;4.730;2024-03-08T04:22:19;3.40;99.90
27619;DHT22;15039;50.830;4.730;2024-03-08T04:24:45;3.30;99.90
27619;DHT22;15039;50.830;4.730;2024-03-08T04:27:11;3.20;99.90
27619;DHT22;15039;50.830;4.730;2024-03-08T04:29:36;3.30;99.90
27619;DHT22;15039;50.830;4.730;2024-03-08T04:32:03;3.20;99.90
27619;DHT22;15039;50.830;4.730;2024-03-08T04:34:29;3.20;99.90
27619;DHT22;15039;50.830;4.730;2024-03-08T04:36:56;3.20;99.90
27619;DHT22;15039;50.830;4.730;2024-03-08T04:39:22;3.30;99.90
27619;DHT22;15039;50.830;4.730;2024-03-08T04:41:48;3.30;99.90
27619;DHT22;15039;50.830;4.730;2024-03-08T04:44:14;3.40;99.90
27619;DHT22;15039;50.830;4.730;2024-03-08T04:46:40;3.40;99.90
27619;DHT22;15039;50.830;4.730;2024-03-08T04:49:06;3.40;99.90
27619;DHT22;15039;50.830;4.730;2024-03-08T04:51:32;3.30;99.90
27619;DHT22;15039;50.830;4.730;2024-03-08T04:53:59;3.10;99.90
27619;DHT22;15039;50.830;4.730;2024-03-08T04:56:25;3.10;99.90
27619;DHT22;15039;50.830;4.730;2024-03-08T04:58:51;3.10;99.90
27619;DHT22;15039;50.830;4.730;2024-03-08T05:01:16;3.10;99.90
27619;DHT22;15039;50.830;4.730;2024-03-08T05:03:42;3.10;99.90
27619;DHT22;15039;50.830;4.730;2024-03-08T05:06:07;3.20;99.90
27619;DHT22;15039;50.830;4.730;2024-03-08T05:08:33;3.10;99.90
27619;DHT22;15039;50.830;4.730;2024-03-08T05:10:59;3.10;99.90
27619;DHT22;15039;50.830;4.730;2024-03-08T05:13:30;3.00;99.90
27619;DHT22;15039;50.830;4.730;2024-03-08T05:15:56;3.10;99.90
27619;DHT22;15039;50.830;4.730;2024-03-08T05:18:23;3.20;99.90
27619;DHT22;15039;50.830;4.730;2024-03-08T05:20:49;3.20;99.90
27619;DHT22;15039;50.830;4.730;2024-03-08T05:23:15;3.10;99.90
27619;DHT22;15039;50.830;4.730;2024-03-08T05:25:41;3.00;99.90
27619;DHT22;15039;50.830;4.730;2024-03-08T05:28:06;3.00;99.90
27619;DHT22;15039;50.830;4.730;2024-03-08T05:30:32;3.00;99.90
27619;DHT22;15039;50.830;4.730;2024-03-08T05:32:57;3.00;99.90
27619;DHT22;15039;50.830;4.730;2024-03-08T05:35:23;3.00;99.90
27619;DHT22;15039;50.830;4.730;2024-03-08T05:37:49;2.90;99.90
27619;DHT22;15039;50.830;4.730;2024-03-08T05:40:15;3.00;99.90
27619;DHT22;15039;50.830;4.730;2024-03-08T05:42:41;2.90;99.90
27619;DHT22;15039;50.830;4.730;2024-03-08T05:45:06;2.90;99.90
27619;DHT22;15039;50.830;4.730;2024-03-08T05:47:32;2.90;99.90
27619;DHT22;15039;50.830;4.730;2024-03-08T05:50:01;2.90;99.90
27619;DHT22;15039;50.830;4.730;2024-03-08T05:52:27;2.80;99.90
27619;DHT22;15039;50.830;4.730;2024-03-08T05:54:52;2.80;99.90
27619;DHT22;15039;50.830;4.730;2024-03-08T05:57:18;2.80;99.90
27619;DHT22;15039;50.830;4.730;2024-03-08T05:59:43;2.80;99.90
27619;DHT22;15039;50.830;4.730;2024-03-08T06:02:09;2.80;99.90
27619;DHT22;15039;50.830;4.730;2024-03-08T06:04:34;2.70;99.90
27619;DHT22;15039;50.830;4.730;2024-03-08T06:07:00;2.60;99.90
27619;DHT22;15039;50.830;4.730;2024-03-08T06:09:25;2.70;99.90
27619;DHT22;15039;50.830;4.730;2024-03-08T06:11:51;2.70;99.90
27619;DHT22;15039;50.830;4.730;2024-03-08T06:14:17;2.70;99.90
27619;DHT22;15039;50.830;4.730;2024-03-08T06:16:47;2.70;99.90
27619;DHT22;15039;50.830;4.730;2024-03-08T06:19:12;2.60;99.90
27619;DHT22;15039;50.830;4.730;2024-03-08T06:21:38;2.50;99.90
27619;DHT22;15039;50.830;4.730;2024-03-08T06:24:04;2.60;99.90
27619;DHT22;15039;50.830;4.730;2024-03-08T06:26:30;2.60;99.90
27619;DHT22;15039;50.830;4.730;2024-03-08T06:28:56;2.70;99.90
27619;DHT22;15039;50.830;4.730;2024-03-08T06:31:21;2.60;99.90
27619;DHT22;15039;50.830;4.730;2024-03-08T06:33:47;2.60;99.90
27619;DHT22;15039;50.830;4.730;2024-03-08T06:36:18;2.70;99.90
27619;DHT22;15039;50.830;4.730;2024-03-08T06:38:49;2.80;99.90
27619;DHT22;15039;50.830;4.730;2024-03-08T06:41:15;2.80;99.90
27619;DHT22;15039;50.830;4.730;2024-03-08T06:43:41;2.80;99.90
27619;DHT22;15039;50.830;4.730;2024-03-08T06:46:07;2.90;99.90
27619;DHT22;15039;50.830;4.730;2024-03-08T06:48:33;2.90;99.90
27619;DHT22;15039;50.830;4.730;2024-03-08T06:50:58;2.80;99.90
27619;DHT22;15039;50.830;4.730;2024-03-08T06:53:24;2.80;99.90
27619;DHT22;15039;50.830;4.730;2024-03-08T06:55:50;2.80;99.90
27619;DHT22;15039;50.830;4.730;2024-03-08T06:58:15;2.90;99.90
27619;DHT22;15039;50.830;4.730;2024-03-08T07:00:41;2.90;99.90
27619;DHT22;15039;50.830;4.730;2024-03-08T07:03:08;3.00;99.90
27619;DHT22;15039;50.830;4.730;2024-03-08T07:05:37;3.10;99.90
27619;DHT22;15039;50.830;4.730;2024-03-08T07:08:03;3.20;99.90
27619;DHT22;15039;50.830;4.730;2024-03-08T07:10:29;3.20;99.90
27619;DHT22;15039;50.830;4.730;2024-03-08T07:12:54;3.30;99.90
27619;DHT22;15039;50.830;4.730;2024-03-08T07:15:20;3.40;99.90
27619;DHT22;15039;50.830;4.730;2024-03-08T07:17:45;3.40;99.90
27619;DHT22;15039;50.830;4.730;2024-03-08T07:20:12;3.40;99.90
27619;DHT22;15039;50.830;4.730;2024-03-08T07:22:39;3.40;99.90
27619;DHT22;15039;50.830;4.730;2024-03-08T07:25:07;3.50;99.90
27619;DHT22;15039;50.830;4.730;2024-03-08T07:27:55;3.50;99.90
27619;DHT22;15039;50.830;4.730;2024-03-08T07:30:24;3.60;99.90
27619;DHT22;15039;50.830;4.730;2024-03-08T07:33:19;3.60;99.90
27619;DHT22;15039;50.830;4.730;2024-03-08T07:35:44;3.70;99.90
27619;DHT22;15039;50.830;4.730;2024-03-08T07:38:10;3.70;99.90
27619;DHT22;15039;50.830;4.730;2024-03-08T07:40:37;3.80;99.90
27619;DHT22;15039;50.830;4.730;2024-03-08T07:43:09;3.90;99.90
27619;DHT22;15039;50.830;4.730;2024-03-08T07:45:36;3.90;99.90
27619;DHT22;15039;50.830;4.730;2024-03-08T07:48:01;3.90;99.90
27619;DHT22;15039;50.830;4.730;2024-03-08T07:50:28;3.90;99.90
27619;DHT22;15039;50.830;4.730;2024-03-08T07:52:54;4.00;99.90
27619;DHT22;15039;50.830;4.730;2024-03-08T07:55:20;4.20;99.90
27619;DHT22;15039;50.830;4.730;2024-03-08T07:57:45;4.20;99.90
27619;DHT22;15039;50.830;4.730;2024-03-08T08:00:13;4.20;99.90
27619;DHT22;15039;50.830;4.730;2024-03-08T08:02:43;4.30;99.90
27619;DHT22;15039;50.830;4.730;2024-03-08T08:05:11;4.40;99.90
27619;DHT22;15039;50.830;4.730;2024-03-08T08:07:36;4.40;99.90
27619;DHT22;15039;50.830;4.730;2024-03-08T08:10:02;4.50;99.90
27619;DHT22;15039;50.830;4.730;2024-03-08T08:12:27;4.60;99.90
27619;DHT22;15039;50.830;4.730;2024-03-08T08:14:54;4.60;99.90
27619;DHT22;15039;50.830;4.730;2024-03-08T08:17:20;4.70;99.90
27619;DHT22;15039;50.830;4.730;2024-03-08T08:19:45;4.90;99.90
27619;DHT22;15039;50.830;4.730;2024-03-08T08:22:11;5.00;99.90
27619;DHT22;15039;50.830;4.730;2024-03-08T08:24:36;5.00;99.90
27619;DHT22;15039;50.830;4.730;2024-03-08T08:27:02;5.00;99.90
27619;DHT22;15039;50.830;4.730;2024-03-08T08:29:28;5.00;99.90
27619;DHT22;15039;50.830;4.730;2024-03-08T08:31:53;5.10;99.90
27619;DHT22;15039;50.830;4.730;2024-03-08T08:34:19;5.10;99.90
27619;DHT22;15039;50.830;4.730;2024-03-08T08:36:47;5.10;99.90
27619;DHT22;15039;50.830;4.730;2024-03-08T08:39:12;5.20;99.90
27619;DHT22;15039;50.830;4.730;2024-03-08T08:41:39;5.30;99.90
27619;DHT22;15039;50.830;4.730;2024-03-08T08:44:07;5.30;99.90
27619;DHT22;15039;50.830;4.730;2024-03-08T08:46:38;5.50;99.90
27619;DHT22;15039;50.830;4.730;2024-03-08T08:49:04;5.50;99.90
27619;DHT22;15039;50.830;4.730;2024-03-08T08:51:30;5.60;99.90
27619;DHT22;15039;50.830;4.730;2024-03-08T08:53:58;5.60;99.90
27619;DHT22;15039;50.830;4.730;2024-03-08T08:56:24;5.70;99.90
27619;DHT22;15039;50.830;4.730;2024-03-08T08:58:50;5.70;99.90
27619;DHT22;15039;50.830;4.730;2024-03-08T09:01:16;5.80;99.90
27619;DHT22;15039;50.830;4.730;2024-03-08T09:03:43;5.80;99.90
27619;DHT22;15039;50.830;4.730;2024-03-08T09:06:12;5.90;99.90
27619;DHT22;15039;50.830;4.730;2024-03-08T09:08:41;6.00;99.90
27619;DHT22;15039;50.830;4.730;2024-03-08T09:11:07;6.00;99.90
27619;DHT22;15039;50.830;4.730;2024-03-08T09:13:32;6.10;99.90
27619;DHT22;15039;50.830;4.730;2024-03-08T09:15:59;6.10;99.90
27619;DHT22;15039;50.830;4.730;2024-03-08T09:18:25;6.20;99.90
27619;DHT22;15039;50.830;4.730;2024-03-08T09:20:50;6.30;99.90
27619;DHT22;15039;50.830;4.730;2024-03-08T09:23:19;6.40;99.90
27619;DHT22;15039;50.830;4.730;2024-03-08T09:25:45;6.50;99.90
27619;DHT22;15039;50.830;4.730;2024-03-08T09:28:12;6.50;99.90
27619;DHT22;15039;50.830;4.730;2024-03-08T09:30:40;6.60;99.90
27619;DHT22;15039;50.830;4.730;2024-03-08T09:33:06;6.60;99.90
27619;DHT22;15039;50.830;4.730;2024-03-08T09:35:32;6.70;99.90
27619;DHT22;15039;50.830;4.730;2024-03-08T09:37:57;6.70;99.90
27619;DHT22;15039;50.830;4.730;2024-03-08T09:40:23;6.70;99.90
27619;DHT22;15039;50.830;4.730;2024-03-08T09:42:50;6.70;99.90
27619;DHT22;15039;50.830;4.730;2024-03-08T09:45:16;6.90;99.90
27619;DHT22;15039;50.830;4.730;2024-03-08T09:47:43;7.00;99.90
27619;DHT22;15039;50.830;4.730;2024-03-08T09:50:09;7.00;99.90
27619;DHT22;15039;50.830;4.730;2024-03-08T09:52:38;7.10;99.90
27619;DHT22;15039;50.830;4.730;2024-03-08T09:55:08;7.10;99.90
27619;DHT22;15039;50.830;4.730;2024-03-08T09:57:36;7.10;99.90
27619;DHT22;15039;50.830;4.730;2024-03-08T10:00:03;7.20;99.90
27619;DHT22;15039;50.830;4.730;2024-03-08T10:02:33;7.20;99.90
27619;DHT22;15039;50.830;4.730;2024-03-08T10:05:00;7.20;99.90
27619;DHT22;15039;50.830;4.730;2024-03-08T10:07:28;7.30;99.90
27619;DHT22;15039;50.830;4.730;2024-03-08T10:09:54;7.40;99.90
27619;DHT22;15039;50.830;4.730;2024-03-08T10:12:20;7.40;99.90
27619;DHT22;15039;50.830;4.730;2024-03-08T10:14:45;7.50;99.90
27619;DHT22;15039;50.830;4.730;2024-03-08T10:17:12;7.60;99.90
27619;DHT22;15039;50.830;4.730;2024-03-08T10:19:37;7.70;99.90
27619;DHT22;15039;50.830;4.730;2024-03-08T10:22:04;7.70;99.90
27619;DHT22;15039;50.830;4.730;2024-03-08T10:24:30;7.70;99.90
27619;DHT22;15039;50.830;4.730;2024-03-08T10:27:00;7.80;99.90
27619;DHT22;15039;50.830;4.730;2024-03-08T10:29:27;7.90;99.90
27619;DHT22;15039;50.830;4.730;2024-03-08T10:31:54;7.80;99.90
27619;DHT22;15039;50.830;4.730;2024-03-08T10:34:21;7.80;99.90
27619;DHT22;15039;50.830;4.730;2024-03-08T10:36:52;7.90;99.90
27619;DHT22;15039;50.830;4.730;2024-03-08T10:39:21;8.00;99.90
27619;DHT22;15039;50.830;4.730;2024-03-08T10:41:49;8.00;99.90
27619;DHT22;15039;50.830;4.730;2024-03-08T10:44:26;8.10;99.90
27619;DHT22;15039;50.830;4.730;2024-03-08T10:47:01;8.20;99.90
27619;DHT22;15039;50.830;4.730;2024-03-08T10:49:38;8.20;99.90
27619;DHT22;15039;50.830;4.730;2024-03-08T10:52:04;8.30;99.90
27619;DHT22;15039;50.830;4.730;2024-03-08T10:54:37;8.30;99.90
27619;DHT22;15039;50.830;4.730;2024-03-08T10:57:05;8.50;99.90
27619;DHT22;15039;50.830;4.730;2024-03-08T10:59:34;8.60;99.90
27619;DHT22;15039;50.830;4.730;2024-03-08T11:02:03;8.70;99.90
27619;DHT22;15039;50.830;4.730;2024-03-08T11:04:31;8.70;99.90
27619;DHT22;15039;50.830;4.730;2024-03-08T11:07:01;8.70;99.90
27619;DHT22;15039;50.830;4.730;2024-03-08T11:09:32;8.90;99.90
27619;DHT22;15039;50.830;4.730;2024-03-08T11:14:42;8.80;99.90
27619;DHT22;15039;50.830;4.730;2024-03-08T11:17:09;9.00;99.90
27619;DHT22;15039;50.830;4.730;2024-03-08T11:19:34;9.00;99.90
27619;DHT22;15039;50.830;4.730;2024-03-08T11:22:01;8.90;99.90
27619;DHT22;15039;50.830;4.730;2024-03-08T11:24:27;8.90;99.90
27619;DHT22;15039;50.830;4.730;2024-03-08T11:26:59;9.10;99.90
27619;DHT22;15039;50.830;4.730;2024-03-08T11:32:07;9.20;99.90
27619;DHT22;15039;50.830;4.730;2024-03-08T11:34:33;9.30;99.90
27619;DHT22;15039;50.830;4.730;2024-03-08T11:36:58;9.40;99.90
27619;DHT22;15039;50.830;4.730;2024-03-08T11:39:24;9.40;99.90
27619;DHT22;15039;50.830;4.730;2024-03-08T11:41:50;9.50;99.90
27619;DHT22;15039;50.830;4.730;2024-03-08T11:44:17;9.60;99.90
27619;DHT22;15039;50.830;4.730;2024-03-08T11:46:43;9.60;99.90
27619;DHT22;15039;50.830;4.730;2024-03-08T11:49:13;9.70;99.90
27619;DHT22;15039;50.830;4.730;2024-03-08T11:51:38;9.70;99.90
27619;DHT22;15039;50.830;4.730;2024-03-08T11:54:05;9.80;99.90
27619;DHT22;15039;50.830;4.730;2024-03-08T11:56:31;9.80;99.90
27619;DHT22;15039;50.830;4.730;2024-03-08T11:58:57;9.90;99.90
27619;DHT22;15039;50.830;4.730;2024-03-08T12:01:23;10.00;99.90
27619;DHT22;15039;50.830;4.730;2024-03-08T12:03:53;10.00;99.90
27619;DHT22;15039;50.830;4.730;2024-03-08T12:06:19;10.20;99.90
27619;DHT22;15039;50.830;4.730;2024-03-08T12:08:48;10.30;99.90
27619;DHT22;15039;50.830;4.730;2024-03-08T12:11:14;10.40;99.90
27619;DHT22;15039;50.830;4.730;2024-03-08T12:13:41;10.50;99.90
27619;DHT22;15039;50.830;4.730;2024-03-08T12:16:09;10.40;99.90
27619;DHT22;15039;50.830;4.730;2024-03-08T12:18:37;10.40;99.90
27619;DHT22;15039;50.830;4.730;2024-03-08T12:21:06;10.40;99.90
27619;DHT22;15039;50.830;4.730;2024-03-08T12:23:47;10.60;99.90
27619;DHT22;15039;50.830;4.730;2024-03-08T12:26:16;10.60;99.90
27619;DHT22;15039;50.830;4.730;2024-03-08T12:28:42;10.70;99.90
27619;DHT22;15039;50.830;4.730;2024-03-08T12:31:13;10.80;99.90
27619;DHT22;15039;50.830;4.730;2024-03-08T12:33:49;10.80;99.90
27619;DHT22;15039;50.830;4.730;2024-03-08T12:36:15;11.00;99.90
27619;DHT22;15039;50.830;4.730;2024-03-08T12:38:43;11.10;99.90
27619;DHT22;15039;50.830;4.730;2024-03-08T12:41:09;11.10;99.90
27619;DHT22;15039;50.830;4.730;2024-03-08T12:43:34;11.10;99.90
27619;DHT22;15039;50.830;4.730;2024-03-08T12:46:00;11.00;99.90
27619;DHT22;15039;50.830;4.730;2024-03-08T12:48:25;11.20;99.90
27619;DHT22;15039;50.830;4.730;2024-03-08T12:50:51;11.20;99.90
27619;DHT22;15039;50.830;4.730;2024-03-08T12:53:17;11.20;99.90
27619;DHT22;15039;50.830;4.730;2024-03-08T12:55:43;11.30;99.90
27619;DHT22;15039;50.830;4.730;2024-03-08T12:58:09;11.40;99.90
27619;DHT22;15039;50.830;4.730;2024-03-08T13:00:34;11.60;99.90
27619;DHT22;15039;50.830;4.730;2024-03-08T13:03:02;11.60;99.90
27619;DHT22;15039;50.830;4.730;2024-03-08T13:05:28;11.50;99.90
27619;DHT22;15039;50.830;4.730;2024-03-08T13:07:53;11.50;99.90
27619;DHT22;15039;50.830;4.730;2024-03-08T13:10:20;11.60;99.90
27619;DHT22;15039;50.830;4.730;2024-03-08T13:12:45;11.60;99.90
27619;DHT22;15039;50.830;4.730;2024-03-08T13:15:11;11.70;99.90
27619;DHT22;15039;50.830;4.730;2024-03-08T13:17:41;11.90;99.90
27619;DHT22;15039;50.830;4.730;2024-03-08T13:20:08;12.00;99.90
27619;DHT22;15039;50.830;4.730;2024-03-08T13:22:34;11.90;99.90
27619;DHT22;15039;50.830;4.730;2024-03-08T13:24:59;11.90;99.90
27619;DHT22;15039;50.830;4.730;2024-03-08T13:27:27;12.00;99.90
27619;DHT22;15039;50.830;4.730;2024-03-08T13:29:52;12.00;99.90
27619;DHT22;15039;50.830;4.730;2024-03-08T13:32:18;12.10;99.90
27619;DHT22;15039;50.830;4.730;2024-03-08T13:34:46;12.20;99.90
27619;DHT22;15039;50.830;4.730;2024-03-08T13:37:13;12.10;99.90
27619;DHT22;15039;50.830;4.730;2024-03-08T13:39:41;12.10;99.90
27619;DHT22;15039;50.830;4.730;2024-03-08T13:44:47;12.10;99.90
27619;DHT22;15039;50.830;4.730;2024-03-08T13:47:16;12.10;99.90
27619;DHT22;15039;50.830;4.730;2024-03-08T13:49:42;12.30;99.90
27619;DHT22;15039;50.830;4.730;2024-03-08T13:52:09;12.40;99.90
27619;DHT22;15039;50.830;4.730;2024-03-08T13:54:35;12.50;99.90
27619;DHT22;15039;50.830;4.730;2024-03-08T13:57:00;12.60;99.90
27619;DHT22;15039;50.830;4.730;2024-03-08T13:59:29;12.70;99.90
27619;DHT22;15039;50.830;4.730;2024-03-08T14:01:55;12.70;99.90
27619;DHT22;15039;50.830;4.730;2024-03-08T14:04:21;12.60;99.90
27619;DHT22;15039;50.830;4.730;2024-03-08T14:06:47;12.70;99.90
27619;DHT22;15039;50.830;4.730;2024-03-08T14:09:14;12.70;99.90
27619;DHT22;15039;50.830;4.730;2024-03-08T14:11:42;12.80;99.90
27619;DHT22;15039;50.830;4.730;2024-03-08T14:14:10;12.80;99.90
27619;DHT22;15039;50.830;4.730;2024-03-08T14:16:35;12.90;99.90
27619;DHT22;15039;50.830;4.730;2024-03-08T14:19:02;12.80;99.90
27619;DHT22;15039;50.830;4.730;2024-03-08T14:21:31;12.90;99.90
27619;DHT22;15039;50.830;4.730;2024-03-08T14:23:57;12.90;99.90
27619;DHT22;15039;50.830;4.730;2024-03-08T14:26:22;13.00;99.90
27619;DHT22;15039;50.830;4.730;2024-03-08T14:28:48;13.10;99.90
27619;DHT22;15039;50.830;4.730;2024-03-08T14:31:17;13.20;99.90
27619;DHT22;15039;50.830;4.730;2024-03-08T14:33:47;13.20;99.90
27619;DHT22;15039;50.830;4.730;2024-03-08T14:36:15;13.20;99.90
27619;DHT22;15039;50.830;4.730;2024-03-08T14:38:45;13.10;99.90
27619;DHT22;15039;50.830;4.730;2024-03-08T14:41:12;13.00;99.90
27619;DHT22;15039;50.830;4.730;2024-03-08T14:43:41;13.10;99.90
27619;DHT22;15039;50.830;4.730;2024-03-08T14:46:10;13.10;99.90
27619;DHT22;15039;50.830;4.730;2024-03-08T14:48:39;13.10;99.90
27619;DHT22;15039;50.830;4.730;2024-03-08T14:51:06;13.20;99.90
27619;DHT22;15039;50.830;4.730;2024-03-08T14:53:35;13.10;99.90
27619;DHT22;15039;50.830;4.730;2024-03-08T14:56:01;13.10;99.90
27619;DHT22;15039;50.830;4.730;2024-03-08T14:58:26;13.10;99.90
27619;DHT22;15039;50.830;4.730;2024-03-08T15:00:53;13.10;99.90
27619;DHT22;15039;50.830;4.730;2024-03-08T15:03:21;13.00;99.90
27619;DHT22;15039;50.830;4.730;2024-03-08T15:05:50;12.90;99.90
27619;DHT22;15039;50.830;4.730;2024-03-08T15:08:15;12.90;99.90
27619;DHT22;15039;50.830;4.730;2024-03-08T15:10:49;12.90;99.90
27619;DHT22;15039;50.830;4.730;2024-03-08T15:13:19;13.00;99.90
27619;DHT22;15039;50.830;4.730;2024-03-08T15:15:53;13.00;99.90
27619;DHT22;15039;50.830;4.730;2024-03-08T15:18:22;13.00;99.90
27619;DHT22;15039;50.830;4.730;2024-03-08T15:20:51;12.90;99.90
27619;DHT22;15039;50.830;4.730;2024-03-08T15:23:17;12.90;99.90
27619;DHT22;15039;50.830;4.730;2024-03-08T15:25:42;12.90;99.90
27619;DHT22;15039;50.830;4.730;2024-03-08T15:28:11;12.90;99.90
27619;DHT22;15039;50.830;4.730;2024-03-08T15:30:41;12.80;99.90
27619;DHT22;15039;50.830;4.730;2024-03-08T15:33:12;12.80;99.90
27619;DHT22;15039;50.830;4.730;2024-03-08T15:35:38;12.70;99.90
27619;DHT22;15039;50.830;4.730;2024-03-08T15:38:04;12.70;99.90
27619;DHT22;15039;50.830;4.730;2024-03-08T15:40:30;12.70;99.90
27619;DHT22;15039;50.830;4.730;2024-03-08T15:42:56;12.70;99.90
27619;DHT22;15039;50.830;4.730;2024-03-08T15:45:22;12.80;99.90
27619;DHT22;15039;50.830;4.730;2024-03-08T15:47:55;12.80;99.90